createdAt,value
2018-07-27T00:01:47.698Z,7.73
2018-07-27T00:04:17.460Z,8.80
2018-07-27T00:06:48.198Z,8.37
2018-07-27T00:09:17.630Z,9.07
2018-07-27T00:11:47.554Z,9.30
2018-07-27T00:14:16.969Z,9.37
2018-07-27T00:16:46.988Z,8.37
2018-07-27T00:19:18.146Z,8.67
2018-07-27T00:21:47.484Z,8.90
2018-07-27T00:24:16.944Z,10.30
2018-07-27T00:26:47.810Z,10.23
2018-07-27T00:29:17.811Z,8.80
2018-07-27T00:31:47.196Z,9.50
2018-07-27T00:34:16.557Z,9.33
2018-07-27T00:36:45.978Z,9.47
2018-07-27T00:39:15.942Z,9.80
2018-07-27T00:41:45.321Z,9.13
2018-07-27T00:44:15.613Z,10.07
2018-07-27T00:46:46.806Z,9.53
2018-07-27T00:49:17.613Z,9.00
2018-07-27T00:51:47.452Z,10.03
2018-07-27T00:54:19.258Z,8.47
2018-07-27T00:56:48.617Z,9.50
2018-07-27T00:59:18.134Z,8.47
2018-07-27T01:01:47.478Z,9.20
2018-07-27T01:04:18.091Z,9.30
2018-07-27T01:06:49.068Z,9.50
2018-07-27T01:09:18.446Z,10.20
2018-07-27T01:11:48.941Z,8.70
2018-07-27T01:14:18.331Z,9.20
2018-07-27T01:16:47.721Z,10.20
2018-07-27T01:19:17.153Z,8.43
2018-07-27T01:21:46.553Z,9.60
2018-07-27T01:24:17.148Z,8.87
2018-07-27T01:26:47.097Z,9.00
2018-07-27T01:29:18.433Z,9.90
2018-07-27T01:31:47.981Z,10.37
2018-07-27T01:34:17.484Z,9.30
2018-07-27T01:36:47.297Z,9.23
2018-07-27T01:39:18.404Z,10.07
2018-07-27T01:41:47.850Z,9.37
2018-07-27T01:44:16.932Z,9.73
2018-07-27T01:46:46.312Z,9.20
2018-07-27T01:49:16.106Z,9.50
2018-07-27T01:51:45.785Z,9.23
2018-07-27T01:54:16.142Z,10.20
2018-07-27T01:56:46.430Z,9.23
2018-07-27T01:59:16.374Z,10.10
2018-07-27T02:01:45.822Z,10.50
2018-07-27T02:04:15.205Z,10.97
2018-07-27T02:06:44.607Z,10.20
2018-07-27T02:09:14.157Z,10.83
2018-07-27T02:11:44.064Z,11.47
2018-07-27T02:14:13.465Z,11.03
2018-07-27T02:16:42.820Z,11.47
2018-07-27T02:19:12.256Z,11.33
2018-07-27T02:21:41.673Z,11.67
2018-07-27T02:24:11.068Z,11.60
2018-07-27T02:26:40.454Z,10.67
2018-07-27T02:29:09.870Z,10.70
2018-07-27T02:31:39.258Z,13.27
2018-07-27T02:34:08.694Z,12.03
2018-07-27T02:36:38.060Z,11.40
2018-07-27T02:39:10.266Z,11.20
2018-07-27T02:41:39.726Z,12.30
2018-07-27T02:44:09.750Z,12.33
2018-07-27T02:46:39.277Z,12.00
2018-07-27T02:49:08.601Z,12.27
2018-07-27T02:51:38.103Z,13.17
2018-07-27T02:54:07.722Z,13.33
2018-07-27T02:56:37.194Z,12.27
2018-07-27T02:59:06.600Z,11.63
2018-07-27T03:01:36.143Z,11.43
2018-07-27T03:04:05.624Z,12.47
2018-07-27T03:06:34.950Z,12.80
2018-07-27T03:09:05.794Z,12.03
2018-07-27T03:11:35.257Z,13.90
2018-07-27T03:14:04.859Z,14.30
2018-07-27T03:16:33.987Z,12.27
2018-07-27T03:19:03.381Z,12.53
2018-07-27T03:21:32.754Z,14.10
2018-07-27T03:24:02.238Z,12.17
2018-07-27T03:26:31.713Z,12.87
2018-07-27T03:29:01.331Z,12.77
2018-07-27T03:31:30.698Z,11.87
2018-07-27T03:34:00.019Z,12.47
2018-07-27T03:36:29.658Z,12.73
2018-07-27T03:38:59.122Z,13.70
2018-07-27T03:41:28.497Z,12.40
2018-07-27T03:43:58.359Z,12.47
2018-07-27T03:46:27.733Z,12.63
2018-07-27T03:48:57.140Z,13.10
2018-07-27T03:51:26.491Z,14.23
2018-07-27T03:53:55.953Z,12.53
2018-07-27T03:56:25.342Z,13.77
2018-07-27T03:58:54.849Z,14.87
2018-07-27T04:01:24.316Z,15.73
2018-07-27T04:03:53.680Z,12.97
2018-07-27T04:06:23.064Z,14.90
2018-07-27T04:08:52.479Z,14.37
2018-07-27T04:11:21.858Z,14.10
2018-07-27T04:13:51.638Z,15.07
2018-07-27T04:16:21.090Z,14.80
2018-07-27T04:18:50.502Z,13.77
2018-07-27T04:21:19.870Z,14.57
2018-07-27T04:23:49.318Z,14.07
2018-07-27T04:26:18.768Z,14.70
2018-07-27T04:28:48.218Z,13.20
2018-07-27T04:31:17.569Z,13.57
2018-07-27T04:33:47.048Z,15.20
2018-07-27T04:36:16.405Z,13.53
2018-07-27T04:38:45.830Z,12.93
2018-07-27T04:41:15.409Z,12.17
2018-07-27T04:43:44.838Z,11.83
2018-07-27T04:46:14.413Z,12.77
2018-07-27T04:48:44.117Z,12.37
2018-07-27T04:51:13.510Z,12.90
2018-07-27T04:53:42.884Z,12.87
2018-07-27T04:56:12.282Z,12.93
2018-07-27T04:58:41.626Z,14.07
2018-07-27T05:01:10.992Z,12.70
2018-07-27T05:03:40.382Z,13.70
2018-07-27T05:06:09.799Z,14.90
2018-07-27T05:08:44.329Z,12.87
2018-07-27T05:11:13.727Z,12.83
2018-07-27T05:13:43.098Z,12.80
2018-07-27T05:16:12.450Z,13.30
2018-07-27T05:18:41.802Z,13.07
2018-07-27T05:21:11.167Z,12.70
2018-07-27T05:23:40.563Z,11.40
2018-07-27T05:26:09.685Z,11.53
2018-07-27T05:28:39.074Z,10.63
2018-07-27T05:31:08.229Z,10.30
2018-07-27T05:33:37.613Z,9.30
2018-07-27T05:36:07.221Z,9.83
2018-07-27T05:38:36.575Z,8.73
2018-07-27T05:41:05.826Z,8.63
2018-07-27T05:43:35.232Z,8.53
2018-07-27T05:46:04.676Z,8.27
2018-07-27T05:48:34.110Z,8.77
2018-07-27T05:51:03.516Z,8.50
2018-07-27T05:53:32.874Z,7.40
2018-07-27T05:56:02.217Z,7.70
2018-07-27T05:58:31.612Z,7.17
2018-07-27T06:01:00.726Z,6.87
2018-07-27T06:03:30.078Z,6.70
2018-07-27T06:05:59.398Z,5.97
2018-07-27T06:08:28.757Z,6.40
2018-07-27T06:10:58.186Z,7.10
2018-07-27T06:13:27.579Z,6.43
2018-07-27T06:15:56.982Z,5.90
2018-07-27T06:18:26.344Z,7.20
2018-07-27T06:20:55.798Z,5.63
2018-07-27T06:23:25.199Z,5.53
2018-07-27T06:25:54.679Z,6.90
2018-07-27T06:28:24.119Z,6.10
2018-07-27T06:30:53.474Z,5.67
2018-07-27T06:33:22.821Z,6.97
2018-07-27T06:35:52.185Z,6.20
2018-07-27T06:38:21.556Z,6.60
2018-07-27T06:40:50.910Z,5.70
2018-07-27T06:43:20.895Z,5.83
2018-07-27T06:45:50.270Z,6.00
2018-07-27T06:48:20.517Z,6.40
2018-07-27T06:50:51.350Z,5.53
2018-07-27T06:53:20.783Z,5.70
2018-07-27T06:55:50.146Z,5.60
2018-07-27T06:58:19.549Z,5.60
2018-07-27T07:00:48.969Z,6.00
2018-07-27T07:03:18.091Z,5.57
2018-07-27T07:05:47.489Z,5.30
2018-07-27T07:08:16.878Z,5.20
2018-07-27T07:10:46.244Z,5.47
2018-07-27T07:13:15.682Z,5.00
2018-07-27T07:15:45.058Z,5.17
2018-07-27T07:18:14.433Z,5.30
2018-07-27T07:20:43.859Z,4.90
2018-07-27T07:23:13.233Z,5.17
2018-07-27T07:25:42.761Z,4.90
2018-07-27T07:28:12.098Z,4.73
2018-07-27T07:30:41.444Z,4.57
2018-07-27T07:33:10.885Z,5.00
2018-07-27T07:35:40.543Z,4.50
2018-07-27T07:38:09.939Z,4.03
2018-07-27T07:40:39.296Z,4.70
2018-07-27T07:43:08.658Z,4.40
2018-07-27T07:45:38.086Z,4.57
2018-07-27T07:48:07.494Z,4.30
2018-07-27T07:50:36.906Z,4.10
2018-07-27T07:53:06.595Z,3.77
2018-07-27T07:55:35.952Z,4.33
2018-07-27T07:58:05.342Z,4.20
2018-07-27T08:00:35.257Z,4.80
2018-07-27T08:03:04.777Z,4.00
2018-07-27T08:05:34.182Z,4.27
2018-07-27T08:08:03.270Z,3.57
2018-07-27T08:10:32.705Z,4.03
2018-07-27T08:13:02.050Z,4.00
2018-07-27T08:15:31.434Z,4.07
2018-07-27T08:18:00.829Z,4.33
2018-07-27T08:20:30.251Z,4.53
2018-07-27T08:22:59.655Z,3.80
2018-07-27T08:25:48.426Z,5.00
2018-07-27T08:28:34.823Z,4.53
2018-07-27T08:31:04.253Z,4.63
2018-07-27T08:33:33.778Z,4.30
2018-07-27T08:36:03.241Z,4.33
2018-07-27T08:38:32.647Z,3.70
2018-07-27T08:41:02.138Z,3.87
2018-07-27T08:43:31.534Z,4.57
2018-07-27T08:46:00.999Z,3.87
2018-07-27T08:48:30.501Z,3.50
2018-07-27T08:51:00.911Z,4.53
2018-07-27T08:53:30.254Z,3.70
2018-07-27T08:55:59.698Z,3.60
2018-07-27T08:58:28.805Z,4.20
2018-07-27T09:00:58.259Z,3.20
2018-07-27T09:03:27.698Z,4.40
2018-07-27T09:05:57.124Z,3.40
2018-07-27T09:08:26.530Z,4.33
2018-07-27T09:10:55.985Z,3.57
2018-07-27T09:13:25.797Z,3.67
2018-07-27T09:15:55.573Z,3.60
2018-07-27T09:18:25.205Z,3.10
2018-07-27T09:20:54.776Z,3.00
2018-07-27T09:23:24.441Z,3.57
2018-07-27T09:25:53.905Z,3.27
2018-07-27T09:28:23.222Z,3.57
2018-07-27T09:30:52.807Z,3.37
2018-07-27T09:33:22.365Z,3.27
2018-07-27T09:35:51.986Z,3.43
2018-07-27T09:38:21.402Z,3.57
2018-07-27T09:40:50.819Z,3.50
2018-07-27T09:43:20.578Z,3.50
2018-07-27T09:45:50.169Z,3.33
2018-07-27T09:48:19.632Z,3.30
2018-07-27T09:50:49.073Z,3.23
2018-07-27T09:53:18.472Z,3.10
2018-07-27T09:55:48.452Z,3.50
2018-07-27T09:58:17.897Z,2.53
2018-07-27T10:00:52.564Z,3.70
2018-07-27T10:03:22.128Z,2.50
2018-07-27T10:05:51.523Z,2.97
2018-07-27T10:08:20.922Z,3.20
2018-07-27T10:10:50.306Z,2.77
2018-07-27T10:13:20.381Z,3.03
2018-07-27T10:15:49.725Z,3.57
2018-07-27T10:18:19.838Z,2.50
2018-07-27T10:20:49.478Z,3.07
2018-07-27T10:23:18.809Z,3.20
2018-07-27T10:25:48.221Z,3.30
2018-07-27T10:28:18.015Z,2.80
2018-07-27T10:30:47.753Z,3.40
2018-07-27T10:33:20.760Z,3.10
2018-07-27T10:35:50.243Z,3.57
2018-07-27T10:38:20.122Z,3.47
2018-07-27T10:40:49.530Z,3.17
2018-07-27T10:43:19.418Z,3.60
2018-07-27T10:45:48.788Z,3.23
2018-07-27T10:48:18.081Z,3.23
2018-07-27T10:50:48.017Z,3.07
2018-07-27T10:53:17.433Z,2.80
2018-07-27T10:55:46.857Z,3.90
2018-07-27T10:58:16.899Z,3.97
2018-07-27T11:00:46.302Z,3.30
2018-07-27T11:03:17.067Z,2.93
2018-07-27T11:05:46.413Z,3.23
2018-07-27T11:08:15.960Z,3.80
2018-07-27T11:10:45.325Z,2.87
2018-07-27T11:13:14.763Z,2.97
2018-07-27T11:15:44.153Z,3.37
2018-07-27T11:18:13.545Z,3.03
2018-07-27T11:20:42.878Z,3.60
2018-07-27T11:23:12.474Z,3.40
2018-07-27T11:25:41.940Z,3.10
2018-07-27T11:28:11.246Z,3.77
2018-07-27T11:30:40.665Z,3.30
2018-07-27T11:33:10.086Z,3.60
2018-07-27T11:35:39.522Z,3.50
2018-07-27T11:38:08.981Z,3.50
2018-07-27T11:40:38.415Z,3.57
2018-07-27T11:43:07.905Z,3.90
2018-07-27T11:45:37.281Z,3.53
2018-07-27T11:48:06.712Z,2.97
2018-07-27T11:50:36.126Z,3.30
2018-07-27T11:53:05.550Z,3.10
2018-07-27T11:55:34.889Z,3.60
2018-07-27T11:58:04.357Z,3.30
2018-07-27T12:00:33.750Z,3.67
2018-07-27T12:03:03.414Z,3.73
2018-07-27T12:05:32.817Z,4.10
2018-07-27T12:08:02.186Z,4.40
2018-07-27T12:10:31.577Z,3.60
2018-07-27T12:13:01.049Z,3.70
2018-07-27T12:15:30.197Z,4.03
2018-07-27T12:17:59.607Z,4.10
2018-07-27T12:20:29.170Z,3.80
2018-07-27T12:22:58.602Z,3.80
2018-07-27T12:25:28.081Z,4.30
2018-07-27T12:27:58.166Z,4.40
2018-07-27T12:30:27.555Z,4.63
2018-07-27T12:32:57.945Z,5.13
2018-07-27T12:35:27.425Z,4.33
2018-07-27T12:37:57.082Z,4.00
2018-07-27T12:40:27.999Z,5.53
2018-07-27T12:42:57.714Z,4.10
2018-07-27T12:45:28.587Z,4.37
2018-07-27T12:47:58.178Z,4.73
2018-07-27T12:50:27.546Z,4.40
2018-07-27T12:52:57.937Z,4.70
2018-07-27T12:55:27.718Z,5.60
2018-07-27T12:57:57.145Z,4.00
2018-07-27T13:00:27.076Z,5.17
2018-07-27T13:02:56.822Z,4.30
2018-07-27T13:05:26.182Z,5.43
2018-07-27T13:07:55.644Z,5.37
2018-07-27T13:10:25.542Z,6.17
2018-07-27T13:12:55.595Z,4.40
2018-07-27T13:15:26.118Z,4.53
2018-07-27T13:17:56.038Z,4.67
2018-07-27T13:20:32.865Z,5.27
2018-07-27T13:23:02.323Z,4.80
2018-07-27T13:25:31.749Z,5.67
2018-07-27T13:28:03.190Z,5.40
2018-07-27T13:30:32.576Z,4.53
2018-07-27T13:33:02.811Z,5.17
2018-07-27T13:38:02.208Z,4.70
2018-07-27T13:40:32.159Z,4.90
2018-07-27T13:43:03.053Z,4.90
2018-07-27T13:45:32.690Z,4.97
2018-07-27T13:48:02.553Z,5.20
2018-07-27T13:50:32.010Z,5.10
2018-07-27T13:53:02.741Z,4.83
2018-07-27T13:55:32.474Z,5.13
2018-07-27T13:58:02.876Z,4.90
2018-07-27T14:00:32.391Z,5.07
2018-07-27T14:03:01.910Z,4.80
2018-07-27T14:05:31.969Z,4.63
2018-07-27T14:08:01.835Z,4.77
2018-07-27T14:10:31.481Z,4.47
2018-07-27T14:13:01.974Z,4.03
2018-07-27T14:15:31.797Z,4.23
2018-07-27T14:18:01.010Z,4.43
2018-07-27T14:20:31.219Z,4.07
2018-07-27T14:23:00.394Z,4.57
2018-07-27T14:25:30.318Z,4.13
2018-07-27T14:27:59.686Z,4.00
2018-07-27T14:30:29.062Z,4.20
2018-07-27T14:32:58.419Z,4.53
2018-07-27T14:35:27.857Z,4.73
2018-07-27T14:37:57.792Z,4.60
2018-07-27T14:40:27.237Z,4.70
2018-07-27T14:42:56.658Z,4.13
2018-07-27T14:45:26.078Z,5.30
2018-07-27T14:47:55.570Z,4.40
2018-07-27T14:50:24.973Z,3.97
2018-07-27T14:52:54.376Z,3.27
2018-07-27T14:55:23.761Z,4.00
2018-07-27T14:57:53.153Z,4.43
2018-07-27T15:00:22.582Z,4.00
2018-07-27T15:02:52.070Z,4.40
2018-07-27T15:05:21.505Z,4.30
2018-07-27T15:07:50.934Z,3.87
2018-07-27T15:10:20.380Z,5.33
2018-07-27T15:12:49.817Z,3.80
2018-07-27T15:15:19.207Z,4.17
2018-07-27T15:17:48.879Z,4.37
2018-07-27T15:20:18.270Z,4.10
2018-07-27T15:22:47.722Z,4.40
2018-07-27T15:25:17.167Z,4.43
2018-07-27T15:27:47.589Z,3.93
2018-07-27T15:30:17.347Z,3.70
2018-07-27T15:32:46.830Z,3.80
2018-07-27T15:35:16.278Z,4.60
2018-07-27T15:37:45.795Z,3.73
2018-07-27T15:40:15.401Z,3.80
2018-07-27T15:42:44.846Z,4.10
2018-07-27T15:45:14.277Z,4.13
2018-07-27T15:47:43.702Z,3.77
2018-07-27T15:50:13.138Z,3.80
2018-07-27T15:52:42.509Z,4.30
2018-07-27T15:55:11.902Z,3.50
2018-07-27T15:57:41.465Z,3.13
2018-07-27T16:00:11.254Z,3.67
2018-07-27T16:02:40.659Z,3.40
2018-07-27T16:05:10.037Z,3.10
2018-07-27T16:07:39.446Z,3.77
2018-07-27T16:10:09.098Z,4.17
2018-07-27T16:12:38.514Z,4.87
2018-07-27T16:15:08.130Z,3.83
2018-07-27T16:17:37.563Z,4.20
2018-07-27T16:20:06.818Z,4.47
2018-07-27T16:22:37.793Z,4.10
2018-07-27T16:25:07.434Z,4.77
2018-07-27T16:27:37.061Z,3.90
2018-07-27T16:30:07.214Z,4.23
2018-07-27T16:32:36.881Z,4.10
2018-07-27T16:35:06.394Z,4.10
2018-07-27T16:37:35.897Z,3.97
2018-07-27T16:40:05.897Z,4.30
2018-07-27T16:42:35.335Z,5.03
2018-07-27T16:45:04.853Z,4.13
2018-07-27T16:47:34.230Z,4.60
2018-07-27T16:50:03.714Z,4.20
2018-07-27T16:52:33.150Z,3.90
2018-07-27T16:55:02.511Z,4.10
2018-07-27T16:57:31.871Z,4.50
2018-07-27T17:00:01.345Z,4.77
2018-07-27T17:02:30.722Z,4.13
2018-07-27T17:05:00.088Z,4.67
2018-07-27T17:07:29.461Z,4.90
2018-07-27T17:09:59.182Z,4.33
2018-07-27T17:12:28.669Z,4.07
2018-07-27T17:14:58.066Z,5.37
2018-07-27T17:17:27.431Z,4.00
2018-07-27T17:19:56.934Z,4.50
2018-07-27T17:22:26.237Z,4.73
2018-07-27T17:24:55.813Z,4.63
2018-07-27T17:27:24.992Z,5.10
2018-07-27T17:29:54.343Z,4.87
2018-07-27T17:32:23.735Z,5.33
2018-07-27T17:34:53.141Z,5.00
2018-07-27T17:37:22.581Z,5.67
2018-07-27T17:39:51.717Z,4.90
2018-07-27T17:42:21.077Z,4.80
2018-07-27T17:44:50.216Z,5.13
2018-07-27T17:47:19.593Z,4.67
2018-07-27T17:49:49.137Z,5.20
2018-07-27T17:52:18.521Z,4.60
2018-07-27T17:54:48.088Z,5.27
2018-07-27T17:57:17.437Z,5.10
2018-07-27T17:59:47.018Z,5.90
2018-07-27T18:02:16.558Z,5.57
2018-07-27T18:04:45.954Z,5.23
2018-07-27T18:07:15.587Z,5.07
2018-07-27T18:09:44.849Z,5.80
2018-07-27T18:12:14.260Z,4.93
2018-07-27T18:14:43.655Z,4.80
2018-07-27T18:17:13.068Z,5.50
2018-07-27T18:19:42.394Z,4.93
2018-07-27T18:22:11.917Z,4.90
2018-07-27T18:24:41.493Z,4.70
2018-07-27T18:27:10.960Z,5.73
2018-07-27T18:29:40.717Z,5.40
2018-07-27T18:32:10.174Z,5.87
2018-07-27T18:34:39.578Z,5.80
2018-07-27T18:37:08.974Z,5.50
2018-07-27T18:39:38.448Z,5.87
2018-07-27T18:42:08.118Z,5.83
2018-07-27T18:44:37.927Z,5.30
2018-07-27T18:47:07.369Z,5.43
2018-07-27T18:49:36.875Z,5.13
2018-07-27T18:52:06.334Z,6.07
2018-07-27T18:54:35.780Z,5.70
2018-07-27T18:57:05.610Z,5.57
2018-07-27T18:59:34.951Z,5.70
2018-07-27T19:02:04.520Z,5.00
2018-07-27T19:04:33.602Z,6.03
2018-07-27T19:07:02.996Z,4.93
2018-07-27T19:09:32.403Z,5.00
2018-07-27T19:12:01.754Z,5.40
2018-07-27T19:14:31.166Z,5.30
2018-07-27T19:17:00.585Z,5.00
2018-07-27T19:19:30.034Z,5.60
2018-07-27T19:21:59.546Z,5.43
2018-07-27T19:24:29.034Z,5.93
2018-07-27T19:26:58.548Z,5.50
2018-07-27T19:29:27.921Z,6.30
2018-07-27T19:31:57.453Z,5.17
2018-07-27T19:34:26.926Z,6.00
2018-07-27T19:36:56.326Z,5.33
2018-07-27T19:39:25.677Z,5.07
2018-07-27T19:41:54.844Z,5.90
2018-07-27T19:44:24.228Z,6.30
2018-07-27T19:46:53.789Z,6.10
2018-07-27T19:49:23.143Z,6.40
2018-07-27T19:51:52.643Z,5.53
2018-07-27T19:54:22.199Z,5.63
2018-07-27T19:56:51.566Z,5.67
2018-07-27T19:59:20.982Z,5.70
2018-07-27T20:01:50.351Z,4.90
2018-07-27T20:04:19.766Z,5.20
2018-07-27T20:06:49.177Z,5.87
2018-07-27T20:09:18.558Z,5.43
2018-07-27T20:11:47.980Z,6.27
2018-07-27T20:14:17.369Z,5.93
2018-07-27T20:16:46.732Z,5.67
2018-07-27T20:19:16.101Z,5.60
2018-07-27T20:21:45.606Z,5.17
2018-07-27T20:24:14.994Z,6.27
2018-07-27T20:26:44.395Z,5.57
2018-07-27T20:29:13.856Z,5.03
2018-07-27T20:31:43.259Z,5.17
2018-07-27T20:34:12.634Z,6.10
2018-07-27T20:36:42.095Z,5.67
2018-07-27T20:39:13.321Z,5.10
2018-07-27T20:41:43.405Z,5.50
2018-07-27T20:44:13.186Z,5.50
2018-07-27T20:46:42.561Z,6.63
2018-07-27T20:49:11.731Z,5.20
2018-07-27T20:51:41.066Z,4.87
2018-07-27T20:54:10.822Z,5.50
2018-07-27T20:56:40.878Z,6.30
2018-07-27T20:59:10.337Z,5.27
2018-07-27T21:01:39.794Z,5.07
2018-07-27T21:04:09.929Z,5.87
2018-07-27T21:06:39.293Z,4.60
2018-07-27T21:09:10.382Z,4.87
2018-07-27T21:11:40.175Z,5.90
2018-07-27T21:14:09.841Z,5.20
2018-07-27T21:16:39.362Z,5.03
2018-07-27T21:19:08.894Z,5.20
2018-07-27T21:21:38.409Z,5.30
2018-07-27T21:24:09.125Z,4.70
2018-07-27T21:26:38.627Z,4.57
2018-07-27T21:29:08.154Z,4.93
2018-07-27T21:31:37.659Z,5.27
2018-07-27T21:34:07.029Z,5.80
2018-07-27T21:36:36.467Z,5.47
2018-07-27T21:39:09.267Z,5.53
2018-07-27T21:41:38.691Z,5.30
2018-07-27T21:44:08.121Z,5.13
2018-07-27T21:46:37.549Z,5.30
2018-07-27T21:49:07.159Z,5.57
2018-07-27T21:51:37.349Z,5.90
2018-07-27T21:54:06.823Z,5.10
2018-07-27T21:56:36.199Z,6.00
2018-07-27T21:59:05.781Z,5.03
2018-07-27T22:01:35.321Z,4.80
2018-07-27T22:04:04.827Z,5.83
2018-07-27T22:06:34.251Z,5.60
2018-07-27T22:09:04.272Z,6.10
2018-07-27T22:11:33.743Z,5.23
2018-07-27T22:14:03.354Z,5.27
2018-07-27T22:16:32.886Z,5.10
2018-07-27T22:19:02.263Z,5.60
2018-07-27T22:21:32.095Z,5.20
2018-07-27T22:24:01.694Z,4.83
2018-07-27T22:26:31.134Z,5.73
2018-07-27T22:29:00.729Z,4.63
2018-07-27T22:31:30.152Z,5.40
2018-07-27T22:33:59.540Z,7.33
2018-07-27T22:36:28.996Z,5.20
2018-07-27T22:38:58.736Z,5.07
2018-07-27T22:41:27.244Z,5.50
2018-07-27T22:43:56.617Z,6.10
2018-07-27T22:46:26.125Z,5.87
2018-07-27T22:48:55.616Z,5.83
2018-07-27T22:51:25.555Z,5.60
2018-07-27T22:53:54.927Z,5.57
2018-07-27T22:56:24.347Z,5.80
2018-07-27T22:58:53.814Z,5.60
2018-07-27T23:01:23.194Z,6.17
2018-07-27T23:03:52.627Z,6.23
2018-07-27T23:06:21.988Z,4.93
2018-07-27T23:08:51.391Z,5.80
2018-07-27T23:11:21.410Z,5.90
2018-07-27T23:13:50.991Z,5.20
2018-07-27T23:16:20.372Z,6.30
2018-07-27T23:18:50.130Z,6.93
2018-07-27T23:21:19.467Z,6.63
2018-07-27T23:23:48.871Z,6.10
2018-07-27T23:26:18.323Z,6.53
2018-07-27T23:28:47.713Z,6.20
2018-07-27T23:31:17.093Z,5.67
2018-07-27T23:33:46.489Z,6.20
2018-07-27T23:36:16.031Z,5.50
2018-07-27T23:38:45.705Z,6.07
2018-07-27T23:41:15.121Z,6.60
2018-07-27T23:43:45.481Z,6.73
2018-07-27T23:46:14.870Z,7.00
2018-07-27T23:48:44.385Z,6.50
2018-07-27T23:51:13.895Z,7.07
2018-07-27T23:53:43.302Z,6.53
2018-07-27T23:56:12.622Z,5.93
2018-07-27T23:58:42.030Z,7.03
